Time;durP1;ratioP1;P1;durP2;ratioP2;P2;SDS_P1;SDS_P2;PMS_P1;PMS_P2;Temp;Humidity;BMP_temperature;BMP_pressure;BME280_temperature;BME280_humidity;BME280_pressure;Samples;Min_cycle;Max_cycle;Signal;HPM_P1;HPM_P2
2021/12/05 00:20:38;;;;;;;12.95;2.05;;;;;;;6.57;95.76;98992.63;8384196;28;20572;-63
2021/12/05 00:24:42;;;;;;;8.75;1.50;;;;;;;6.60;96.02;98988.78;8357323;28;20739;-63
2021/12/05 00:29:24;;;;;;;;;;;;;;;6.61;95.56;98988.63;8368973;28;20045;-63
2021/12/05 00:34:24;;;;;;;12.77;2.35;;;;;;;6.56;95.85;98985.56;8372944;28;19916;-63
2021/12/05 00:46:30;;;;;;;10.57;2.05;;;;;;;6.44;94.47;98976.06;8356661;28;20177;-63
2021/12/05 00:50:56;;;;;;;14.27;2.53;;;;;;;6.40;94.68;98969.28;8358592;28;20033;-63
2021/12/05 01:00:33;;;;;;;14.40;2.42;;;;;;;6.41;93.84;98976.38;8351907;27;20483;-63
2021/12/05 01:04:14;;;;;;;7.65;1.63;;;;;;;6.34;93.56;98980.63;8351403;28;20045;-63
2021/12/05 01:12:17;;;;;;;10.27;2.13;;;;;;;6.08;95.46;98971.63;8421048;27;20486;-63
2021/12/05 01:16:18;;;;;;;17.55;2.10;;;;;;;5.97;95.63;98979.88;8406709;28;20187;-63
2021/12/05 01:20:19;;;;;;;13.40;1.48;;;;;;;5.96;95.27;98986.25;8390185;28;20546;-63
2021/12/05 01:29:50;;;;;;;8.80;1.90;;;;;;;5.83;95.88;99002.66;8419905;27;20447;-63
2021/12/05 01:33:12;;;;;;;8.23;1.48;;;;;;;5.81;95.57;99004.66;8418783;28;20067;-63
2021/12/05 01:42:57;;;;;;;8.45;1.67;;;;;;;5.67;95.93;99004.25;8413990;28;22183;-63
2021/12/05 01:55:04;;;;;;;10.52;1.90;;;;;;;5.62;95.75;99019.94;8416051;28;20388;-63
2021/12/05 02:12:07;;;;;;;9.15;1.40;;;;;;;5.40;95.64;99020.28;8403802;28;20041;-62
2021/12/05 02:38:11;;;;;;;10.48;1.95;;;;;;;5.32;95.59;99017.47;8350601;27;20411;-62
2021/12/05 02:42:15;;;;;;;10.45;2.10;;;;;;;5.17;96.27;99022.44;8330627;28;20048;-62
2021/12/05 02:46:20;;;;;;;11.70;2.00;;;;;;;5.12;96.33;99010.50;8352888;28;20090;-62
2021/12/05 02:50:24;;;;;;;13.98;2.72;;;;;;;5.11;95.77;99008.78;8353035;28;20037;-61
2021/12/05 02:54:26;;;;;;;12.65;2.25;;;;;;;4.90;96.41;99005.41;8352020;28;20041;-62
2021/12/05 02:58:38;;;;;;;10.07;1.55;;;;;;;4.77;97.83;99003.03;8352739;28;20044;-62
2021/12/05 03:02:42;;;;;;;9.70;2.30;;;;;;;4.63;98.75;99003.44;8352294;28;20539;-62
2021/12/05 03:06:51;;;;;;;12.13;2.17;;;;;;;4.66;98.47;99010.38;8354805;28;20044;-61
2021/12/05 03:10:53;;;;;;;9.35;1.33;;;;;;;4.67;98.29;99012.06;8355770;28;20033;-61
2021/12/05 03:15:01;;;;;;;5.85;1.48;;;;;;;4.71;97.77;99010.78;8355554;28;20159;-61
2021/12/05 03:19:03;;;;;;;10.95;1.70;;;;;;;4.94;96.57;99001.50;8355530;28;20045;-61
2021/12/05 03:23:04;;;;;;;6.85;1.70;;;;;;;5.01;95.34;98991.88;8354791;28;20111;-62
2021/12/05 03:27:05;;;;;;;11.23;1.92;;;;;;;5.13;94.65;98993.41;8347648;28;20087;-62
2021/12/05 03:31:06;;;;;;;7.25;1.10;;;;;;;5.16;94.14;98985.09;8335504;28;20370;-62
2021/12/05 03:35:08;;;;;;;10.63;1.90;;;;;;;5.18;93.67;98983.97;8318516;28;20042;-62
2021/12/05 03:39:09;;;;;;;14.32;1.38;;;;;;;5.24;93.30;98971.81;8318768;28;20049;-61
2021/12/05 03:43:13;;;;;;;7.55;1.90;;;;;;;5.11;93.72;98977.50;8318347;28;20030;-62
2021/12/05 03:47:14;;;;;;;7.47;1.40;;;;;;;4.99;94.07;98984.00;8307134;28;20037;-62
2021/12/05 03:51:17;;;;;;;11.32;1.52;;;;;;;4.79;96.61;98986.84;8296264;28;20382;-62
2021/12/05 03:55:19;;;;;;;8.25;1.27;;;;;;;4.46;97.15;98979.22;8295853;28;20044;-62
2021/12/05 03:59:20;;;;;;;13.93;2.38;;;;;;;4.38;97.86;98984.41;8296094;28;20074;-62
2021/12/05 04:03:21;;;;;;;10.23;1.60;;;;;;;4.55;97.07;98981.06;8321706;28;20492;-62
2021/12/05 04:07:22;;;;;;;12.85;2.20;;;;;;;4.55;97.01;98981.06;8316680;28;20468;-62
2021/12/05 04:11:30;;;;;;;7.13;1.70;;;;;;;4.41;97.24;98968.09;8325486;28;20104;-62
2021/12/05 04:15:31;;;;;;;13.13;1.75;;;;;;;4.35;97.37;98955.28;8296796;28;20033;-62
2021/12/05 04:19:31;;;;;;;8.15;1.77;;;;;;;4.34;97.76;98958.94;8304842;28;20123;-62
2021/12/05 04:23:33;;;;;;;7.38;2.03;;;;;;;4.36;97.06;98955.13;8318466;28;20037;-62
2021/12/05 04:27:33;;;;;;;5.78;1.35;;;;;;;4.42;96.59;98961.78;8295466;28;20381;-62
2021/12/05 04:31:35;;;;;;;12.88;2.78;;;;;;;4.56;95.57;98961.34;8306808;28;20037;-62
2021/12/05 04:35:36;;;;;;;6.65;1.38;;;;;;;4.53;96.03;98959.81;8327497;28;20447;-62
2021/12/05 04:39:38;;;;;;;12.90;1.73;;;;;;;4.57;96.15;98949.69;8327862;28;20270;-62
2021/12/05 04:43:39;;;;;;;5.90;1.55;;;;;;;4.53;96.10;98954.44;8327578;28;20045;-62
2021/12/05 04:47:39;;;;;;;4.85;1.48;;;;;;;4.56;95.69;98947.97;8327451;28;20057;-63
2021/12/05 04:51:42;;;;;;;7.78;1.25;;;;;;;4.54;95.45;98953.47;8327489;28;20037;-63
2021/12/05 04:55:43;;;;;;;8.80;1.38;;;;;;;4.48;95.65;98961.22;8326945;28;20033;-63
2021/12/05 04:59:48;;;;;;;5.25;1.10;;;;;;;4.53;95.29;98958.94;8325674;28;20033;-63
2021/12/05 05:03:48;;;;;;;14.55;1.27;;;;;;;4.56;94.98;98958.66;8326501;28;20034;-63
2021/12/05 05:07:49;;;;;;;6.05;1.08;;;;;;;4.57;94.96;98947.00;8317756;28;20045;-63
2021/12/05 05:11:50;;;;;;;7.93;1.85;;;;;;;4.54;94.83;98949.97;8319776;28;20034;-63
2021/12/05 05:15:50;;;;;;;5.55;1.38;;;;;;;4.46;95.54;98955.16;8304958;28;20467;-63
2021/12/05 05:19:55;;;;;;;4.13;1.10;;;;;;;4.38;96.19;98949.66;8303330;28;20042;-63
2021/12/05 05:28:43;;;;;;;5.55;1.17;;;;;;;4.31;95.50;98956.56;8294232;28;20038;-60
2021/12/05 05:46:21;;;;;;;7.15;2.63;;;;;;;4.23;96.65;98972.44;8405387;27;20454;-61
2021/12/05 05:50:06;;;;;;;4.57;1.45;;;;;;;4.25;96.26;98976.69;8402877;27;20044;-61
2021/12/05 05:54:07;;;;;;;8.77;1.25;;;;;;;4.30;96.09;98968.25;8404750;27;20496;-61
2021/12/05 05:58:12;;;;;;;7.78;1.25;;;;;;;4.31;95.58;98973.44;8390727;27;20123;-61
2021/12/05 06:06:25;;;;;;;11.77;1.60;;;;;;;4.35;95.24;98976.66;8357002;27;20475;-61
2021/12/05 06:10:28;;;;;;;7.13;1.48;;;;;;;3.91;96.87;98986.88;8354346;28;20049;-61
2021/12/05 06:14:30;;;;;;;9.05;1.48;;;;;;;3.35;99.65;98985.66;8354681;28;20053;-61
2021/12/05 06:18:30;;;;;;;6.82;1.63;;;;;;;3.01;100.00;98978.88;8347194;28;20405;-61
2021/12/05 06:22:31;;;;;;;3.55;1.10;;;;;;;2.58;100.00;98999.47;8340037;28;20033;-61
2021/12/05 06:26:34;;;;;;;3.67;1.60;;;;;;;2.42;100.00;98987.56;8321474;28;20101;-61
2021/12/05 06:40:04;;;;;;;6.32;1.70;;;;;;;2.82;100.00;98999.25;8356713;28;20140;-61
2021/12/05 06:47:50;;;;;;;7.88;1.70;;;;;;;2.73;100.00;99019.53;8415699;27;20477;-61
2021/12/05 06:51:50;;;;;;;4.15;1.90;;;;;;;2.79;100.00;99021.69;8418406;28;20040;-61
2021/12/05 06:55:50;;;;;;;6.30;1.75;;;;;;;2.76;100.00;99023.78;8417644;28;20067;-61
2021/12/05 06:59:51;;;;;;;4.72;1.58;;;;;;;2.68;100.00;99019.06;8417218;28;20367;-61
2021/12/05 07:03:51;;;;;;;7.85;2.92;;;;;;;2.73;100.00;99026.69;8398859;27;20511;-62
2021/12/05 07:07:52;;;;;;;9.27;1.95;;;;;;;2.67;100.00;99019.19;8395878;27;20041;-62
2021/12/05 07:24:52;;;;;;;11.57;5.53;;;;;;;3.41;100.00;99035.88;8394623;27;20405;-62
2021/12/05 07:42:03;;;;;;;6.68;3.17;;;;;;;3.76;100.00;99044.34;8373202;28;20037;-62
2021/12/05 07:46:06;;;;;;;5.00;2.70;;;;;;;3.84;100.00;99041.84;8380372;28;20048;-62
2021/12/05 07:50:10;;;;;;;5.82;2.85;;;;;;;3.99;100.00;99048.53;8377913;28;20029;-62
2021/12/05 07:54:18;;;;;;;6.68;2.33;;;;;;;4.02;100.00;99050.94;8381290;28;20056;-62
2021/12/05 07:58:45;;;;;;;7.13;3.38;;;;;;;4.12;100.00;99066.16;8381174;28;20093;-62
2021/12/05 08:15:46;;;;;;;7.32;2.15;;;;;;;4.43;100.00;99073.13;8380834;28;20489;-62
2021/12/05 08:19:47;;;;;;;2.33;1.65;;;;;;;4.54;99.91;99073.84;8392881;28;20037;-63
2021/12/05 08:23:49;;;;;;;5.25;2.10;;;;;;;4.66;98.86;99079.97;8380271;28;20040;-63
2021/12/05 08:27:53;;;;;;;5.97;2.38;;;;;;;4.64;98.88;99069.41;8379767;28;20496;-63
2021/12/05 08:32:06;;;;;;;;;;;;;;;4.66;99.79;99077.28;8380548;28;20567;-63
2021/12/05 08:37:47;;;;;;;5.22;2.30;;;;;;;4.71;100.00;99085.72;8326105;28;20386;-63
2021/12/05 08:40:47;;;;;;;6.22;2.38;;;;;;;4.81;99.82;99091.91;8342844;28;20059;-63
2021/12/05 08:46:19;;;;;;;7.93;2.03;;;;;;;4.90;99.68;99091.94;8354200;28;20029;-62
2021/12/05 09:21:08;;;;;;;7.40;2.58;;;;;;;5.58;100.00;99120.41;8353028;28;20031;-61
2021/12/05 09:24:23;;;;;;;3.35;2.13;;;;;;;5.67;100.00;99132.91;8352102;28;20063;-62
2021/12/05 09:51:44;;;;;;;2.92;1.60;;;;;;;6.02;100.00;99157.31;8348731;28;20060;-62
2021/12/05 10:08:07;;;;;;;2.78;1.70;;;;;;;7.07;94.64;99157.66;8344833;28;20106;-62
2021/12/05 10:12:23;;;;;;;3.75;1.40;;;;;;;7.25;93.36;99166.56;8351128;28;20036;-62
2021/12/05 10:16:23;;;;;;;5.10;1.48;;;;;;;7.30;92.85;99174.19;8345125;28;20462;-62
2021/12/05 10:26:18;;;;;;;4.65;1.67;;;;;;;7.47;93.01;99174.16;8348537;28;20049;-62
2021/12/05 10:26:29;;;;;;;2.53;1.40;;;;;;;7.58;90.72;99173.94;8351976;28;20048;-62
2021/12/05 10:33:46;;;;;;;2.95;1.13;;;;;;;7.72;90.26;99184.13;8349917;28;20095;-62
2021/12/05 10:37:51;;;;;;;2.42;1.00;;;;;;;7.63;89.23;99190.44;8338722;28;20486;-62
2021/12/05 10:41:59;;;;;;;4.32;1.10;;;;;;;7.67;89.81;99182.94;8355113;28;20043;-62
2021/12/05 10:46:12;;;;;;;4.18;0.93;;;;;;;7.74;89.05;99179.47;8349269;28;20475;-62
2021/12/05 10:50:35;;;;;;;1.60;0.73;;;;;;;7.96;87.93;99176.28;8350126;28;20029;-62
2021/12/05 10:54:35;;;;;;;1.20;0.60;;;;;;;8.64;86.35;99179.06;8349642;28;20435;-62
2021/12/05 11:03:22;;;;;;;0.45;0.40;;;;;;;8.46;85.99;99183.69;8391488;27;20390;-62
2021/12/05 11:07:23;;;;;;;2.13;0.70;;;;;;;8.15;83.61;99183.31;8394983;27;20088;-63
2021/12/05 11:11:25;;;;;;;2.08;0.60;;;;;;;7.97;85.68;99186.03;8361321;27;20048;-63
2021/12/05 11:15:34;;;;;;;2.20;0.80;;;;;;;7.91;86.47;99185.81;8361299;28;20515;-63
2021/12/05 11:19:55;;;;;;;1.58;0.60;;;;;;;7.82;85.70;99187.63;8365333;28;20237;-63
2021/12/05 11:24:18;;;;;;;1.02;0.50;;;;;;;7.72;87.04;99188.69;8359386;28;20332;-62
2021/12/05 11:28:24;;;;;;;1.10;0.60;;;;;;;7.60;86.52;99188.06;8337318;28;20067;-63
2021/12/05 11:32:36;;;;;;;1.15;0.57;;;;;;;7.55;86.89;99190.38;8370481;28;20045;-63
2021/12/05 11:36:38;;;;;;;1.10;0.50;;;;;;;7.65;86.92;99191.16;8375110;28;20470;-63
2021/12/05 11:41:02;;;;;;;1.33;0.60;;;;;;;7.79;86.52;99198.69;8373954;28;20033;-63
2021/12/05 11:45:05;;;;;;;0.90;0.60;;;;;;;7.76;86.57;99188.22;8356862;28;20052;-63
2021/12/05 11:49:10;;;;;;;1.33;0.70;;;;;;;8.06;87.51;99193.16;8360657;28;20072;-63
2021/12/05 11:53:10;;;;;;;2.75;0.60;;;;;;;8.50;86.95;99185.03;8361130;28;20029;-63
2021/12/05 11:57:19;;;;;;;1.52;0.57;;;;;;;9.01;82.85;99198.44;8354707;28;20037;-63
2021/12/05 12:01:19;;;;;;;2.78;0.60;;;;;;;8.99;79.40;99200.44;8336805;28;20060;-63
2021/12/05 12:05:27;;;;;;;1.35;0.45;;;;;;;9.10;78.12;99200.16;8356253;28;20818;-63
2021/12/05 12:09:28;;;;;;;3.60;0.82;;;;;;;9.06;77.86;99202.31;8371109;28;20127;-63
2021/12/05 12:13:35;;;;;;;2.28;0.57;;;;;;;8.90;80.80;99190.63;8351918;28;20033;-63
2021/12/05 12:17:36;;;;;;;2.63;0.70;;;;;;;8.71;80.60;99197.13;8347530;28;20072;-63
2021/12/05 12:21:41;;;;;;;1.60;0.70;;;;;;;8.72;80.15;99198.81;8341382;28;20496;-63
2021/12/05 12:25:44;;;;;;;2.25;0.60;;;;;;;8.71;79.95;99207.91;8353659;28;20064;-63
2021/12/05 12:29:45;;;;;;;4.18;0.70;;;;;;;8.78;80.21;99208.13;8328827;28;20045;-63
2021/12/05 12:33:53;;;;;;;2.15;0.93;;;;;;;8.75;78.98;99203.06;8341007;28;20029;-63
2021/12/05 12:37:58;;;;;;;6.68;2.13;;;;;;;8.68;79.20;99207.38;8351354;28;20037;-63
2021/12/05 12:42:23;;;;;;;2.58;1.10;;;;;;;8.38;80.31;99210.59;8348680;28;20032;-63
2021/12/05 12:46:50;;;;;;;2.35;0.55;;;;;;;8.22;81.14;99207.72;8349151;28;20483;-63
2021/12/05 12:50:52;;;;;;;19.92;10.60;;;;;;;8.25;82.98;99226.28;8314787;28;20042;-63
2021/12/05 12:54:57;;;;;;;8.57;5.28;;;;;;;8.33;84.14;99220.97;8333404;28;20063;-63
2021/12/05 12:59:05;;;;;;;5.22;1.75;;;;;;;8.32;84.22;99227.38;8334946;28;20033;-63
2021/12/05 13:04:07;;;;;;;2.92;0.65;;;;;;;8.32;83.87;99232.75;8335358;28;21082;-63
2021/12/05 13:11:55;;;;;;;4.35;2.10;;;;;;;8.19;86.32;99227.75;8351317;28;20033;-63
2021/12/05 13:16:08;;;;;;;3.75;1.13;;;;;;;8.31;86.49;99237.28;8338851;28;20032;-63
2021/12/05 13:20:11;;;;;;;7.03;3.80;;;;;;;8.38;87.43;99230.25;8322659;28;20385;-63
2021/12/05 13:24:36;;;;;;;2.60;0.60;;;;;;;8.53;82.40;99235.91;8348815;28;20045;-63
2021/12/05 13:28:40;;;;;;;1.20;0.70;;;;;;;8.52;81.90;99245.84;8348858;28;20053;-63
2021/12/05 13:32:40;;;;;;;2.25;1.05;;;;;;;8.50;83.06;99241.59;8341159;28;20102;-63
2021/12/05 13:36:43;;;;;;;2.97;0.57;;;;;;;8.35;83.67;99254.00;8352068;28;20071;-63
2021/12/05 13:40:45;;;;;;;3.70;1.80;;;;;;;8.22;85.53;99257.06;8351444;28;20487;-63
2021/12/05 13:45:05;;;;;;;0.80;0.80;;;;;;;8.12;86.66;99263.50;8351377;28;20047;-63
2021/12/05 13:49:35;;;;;;;0.98;0.50;;;;;;;8.02;87.34;99275.22;8346102;28;20026;-63
2021/12/05 13:53:46;;;;;;;0.52;0.50;;;;;;;8.06;86.91;99279.28;8354301;28;20396;-63
2021/12/05 14:02:54;;;;;;;4.93;1.42;;;;;;;7.99;86.40;99280.03;8346003;27;20408;-63
2021/12/05 14:07:04;;;;;;;4.95;1.17;;;;;;;7.95;86.01;99295.69;8342205;28;20077;-64
2021/12/05 14:11:11;;;;;;;6.95;1.80;;;;;;;7.95;85.77;99292.97;8338967;28;20388;-65
2021/12/05 14:15:13;;;;;;;3.88;1.23;;;;;;;7.90;87.00;99311.41;8334053;28;20917;-64
2021/12/05 14:19:17;;;;;;;1.27;0.63;;;;;;;7.89;85.26;99328.56;8338906;28;20048;-65
2021/12/05 14:23:21;;;;;;;7.07;0.85;;;;;;;7.84;86.47;99330.88;8338227;28;20048;-65
2021/12/05 14:27:28;;;;;;;2.08;1.10;;;;;;;7.89;85.38;99333.09;8343372;28;20052;-64
2021/12/05 14:31:32;;;;;;;2.17;0.63;;;;;;;7.87;84.88;99335.13;8344169;28;20407;-64
2021/12/05 14:35:39;;;;;;;4.03;1.50;;;;;;;7.85;86.13;99343.34;8344797;28;20536;-64
2021/12/05 14:39:46;;;;;;;3.78;1.85;;;;;;;7.82;86.76;99346.34;8344864;28;20350;-64
2021/12/05 14:43:56;;;;;;;4.95;4.38;;;;;;;7.84;86.27;99357.78;8344777;28;20503;-64
2021/12/05 14:48:02;;;;;;;4.57;3.20;;;;;;;7.76;88.04;99355.00;8345206;28;20072;-64
2021/12/05 14:52:05;;;;;;;9.43;3.80;;;;;;;7.75;88.23;99369.44;8336068;28;20119;-64
2021/12/05 14:56:06;;;;;;;11.73;5.28;;;;;;;7.65;89.24;99370.47;8327037;28;20045;-65
2021/12/05 15:00:12;;;;;;;7.85;3.15;;;;;;;7.55;90.35;99373.25;8341902;28;20048;-64
2021/12/05 15:04:18;;;;;;;13.27;6.45;;;;;;;7.43;93.04;99387.03;8315234;28;20572;-65
2021/12/05 15:08:23;;;;;;;4.18;1.92;;;;;;;7.35;94.21;99387.75;8334928;28;20029;-64
2021/12/05 15:12:24;;;;;;;;;;;;;;;7.24;96.07;99393.34;8330755;28;20516;-64
2021/12/05 15:16:25;;;;;;;7.22;2.17;;;;;;;7.25;95.90;99405.78;8317546;28;19918;-65
2021/12/05 15:20:29;;;;;;;5.93;2.05;;;;;;;7.20;94.73;99410.72;8303222;28;20496;-65
2021/12/05 15:24:30;;;;;;;5.88;3.15;;;;;;;7.19;93.53;99409.06;8298648;28;20045;-65
2021/12/05 15:28:35;;;;;;;3.53;1.50;;;;;;;7.20;94.72;99410.72;8317748;28;20060;-65
2021/12/05 15:32:36;;;;;;;10.73;5.72;;;;;;;7.10;96.27;99420.66;8308979;28;20033;-65
2021/12/05 15:36:36;;;;;;;5.80;3.25;;;;;;;7.06;96.54;99424.66;8320120;28;20045;-64
2021/12/05 15:40:40;;;;;;;4.70;2.30;;;;;;;7.08;98.43;99433.41;8311042;28;20045;-65
2021/12/05 15:44:42;;;;;;;6.43;2.10;;;;;;;7.03;97.70;99435.69;8288719;28;20091;-64
2021/12/05 15:48:46;;;;;;;5.65;2.53;;;;;;;6.96;98.93;99437.28;8288850;28;20038;-64
2021/12/05 15:52:51;;;;;;;5.43;3.03;;;;;;;6.82;100.00;99456.50;8315140;28;20049;-64
2021/12/05 15:57:08;;;;;;;2.85;1.65;;;;;;;6.76;100.00;99451.69;8299288;28;20341;-64
2021/12/05 16:01:13;;;;;;;1.42;0.95;;;;;;;6.70;100.00;99454.97;8319685;28;20245;-65
2021/12/05 16:05:19;;;;;;;4.18;1.83;;;;;;;6.66;100.00;99469.66;8310827;28;20331;-65
2021/12/05 16:09:23;;;;;;;7.93;2.60;;;;;;;6.66;100.00;99469.66;8291877;28;20065;-64
2021/12/05 16:13:30;;;;;;;3.67;2.40;;;;;;;6.61;100.00;99474.59;8316538;28;20523;-64
2021/12/05 16:17:31;;;;;;;3.80;2.63;;;;;;;6.61;100.00;99482.66;8304155;28;20092;-65
2021/12/05 16:21:36;;;;;;;8.75;2.67;;;;;;;6.62;100.00;99491.56;8285903;28;20513;-64
2021/12/05 16:25:42;;;;;;;4.45;2.92;;;;;;;6.64;100.00;99503.84;8286173;28;20034;-64
2021/12/05 16:29:43;;;;;;;7.60;2.72;;;;;;;6.63;100.00;99512.06;8287003;28;20246;-64
2021/12/05 16:33:52;;;;;;;4.50;2.65;;;;;;;6.60;100.00;99509.66;8305599;28;20040;-64
2021/12/05 16:37:52;;;;;;;6.60;2.95;;;;;;;6.56;100.00;99514.44;8286768;28;20470;-64
2021/12/05 16:41:58;;;;;;;5.05;2.60;;;;;;;6.56;100.00;99517.13;8314080;28;20123;-64
2021/12/05 16:46:11;;;;;;;4.72;2.70;;;;;;;6.48;100.00;99530.41;8306609;28;20061;-64
2021/12/05 16:50:13;;;;;;;5.78;2.15;;;;;;;6.42;100.00;99538.16;8317201;28;20510;-64
2021/12/05 16:54:33;;;;;;;6.78;2.40;;;;;;;6.39;100.00;99531.25;8313607;28;20039;-64
2021/12/05 16:58:34;;;;;;;3.78;2.88;;;;;;;6.34;100.00;99544.22;8312936;28;20041;-64
2021/12/05 17:02:44;;;;;;;6.10;2.85;;;;;;;6.31;100.00;99544.50;8317324;28;20052;-64
2021/12/05 17:06:51;;;;;;;6.32;3.20;;;;;;;6.27;100.00;99553.81;8314534;28;20115;-64
2021/12/05 17:11:05;;;;;;;8.60;4.32;;;;;;;6.33;100.00;99564.00;8306525;28;20489;-64
2021/12/05 17:19:27;;;;;;;6.70;4.05;;;;;;;6.26;100.00;99576.28;8356399;27;20503;-61
2021/12/05 17:23:34;;;;;;;3.55;3.20;;;;;;;6.16;100.00;99583.41;8346455;28;20034;-61
2021/12/05 17:27:34;;;;;;;3.47;2.72;;;;;;;6.07;100.00;99589.59;8342836;28;20034;-61
2021/12/05 17:31:43;;;;;;;3.80;2.70;;;;;;;6.11;100.00;99596.41;8326220;28;20044;-61
2021/12/05 17:35:44;;;;;;;10.80;7.03;;;;;;;6.00;100.00;99599.19;8346232;28;20041;-61
2021/12/05 17:39:46;;;;;;;13.98;6.88;;;;;;;5.94;100.00;99610.44;8314251;28;20049;-61
2021/12/05 17:43:47;;;;;;;11.95;6.97;;;;;;;5.89;100.00;99612.69;8377276;28;20071;-61
2021/12/05 17:47:48;;;;;;;12.15;6.68;;;;;;;6.01;100.00;99625.03;8338794;28;20098;-61
2021/12/05 17:51:49;;;;;;;12.43;6.80;;;;;;;6.15;100.00;99640.75;8353001;28;20044;-61
2021/12/05 17:55:58;;;;;;;9.25;6.32;;;;;;;6.11;100.00;99638.47;8378802;28;20028;-61
2021/12/05 18:00:11;;;;;;;10.98;5.60;;;;;;;6.20;100.00;99643.91;8369148;28;20037;-61
2021/12/05 18:04:12;;;;;;;10.68;5.93;;;;;;;6.17;100.00;99649.53;8348606;28;20036;-61
2021/12/05 18:08:17;;;;;;;8.70;5.43;;;;;;;6.09;100.00;99652.03;8375264;28;20591;-61
2021/12/05 18:12:31;;;;;;;16.73;6.80;;;;;;;6.09;100.00;99657.41;8361691;28;20518;-61
2021/12/05 18:16:32;;;;;;;9.95;5.47;;;;;;;6.05;100.00;99661.34;8343845;28;20041;-61
2021/12/05 18:20:35;;;;;;;5.55;3.72;;;;;;;5.99;100.00;99661.88;8324595;28;20073;-61
2021/12/05 18:24:36;;;;;;;5.63;3.83;;;;;;;5.98;100.00;99670.91;8313945;28;20421;-61
2021/12/05 18:28:38;;;;;;;8.25;4.38;;;;;;;5.98;100.00;99670.91;8281967;28;20599;-61
2021/12/05 18:32:39;;;;;;;7.40;5.32;;;;;;;5.99;100.00;99683.34;8290653;28;20332;-62
2021/12/05 18:36:40;;;;;;;7.72;4.47;;;;;;;5.94;100.00;99685.53;8293835;28;20064;-61
2021/12/05 18:40:45;;;;;;;7.72;5.10;;;;;;;5.92;100.00;99684.84;8339458;28;20049;-61
2021/12/05 18:44:52;;;;;;;8.00;5.60;;;;;;;5.88;100.00;99688.75;8348624;28;20052;-61
2021/12/05 18:48:52;;;;;;;7.22;5.43;;;;;;;5.85;100.00;99691.69;8336454;28;20112;-61
2021/12/05 18:52:53;;;;;;;11.45;7.20;;;;;;;5.77;100.00;99704.91;8333118;28;20389;-61
2021/12/05 18:56:53;;;;;;;11.57;7.10;;;;;;;5.81;100.00;99709.00;8331617;28;20037;-61
2021/12/05 19:05:33;;;;;;;13.30;5.82;;;;;;;5.90;100.00;99716.31;8295910;28;20030;-61
2021/12/05 19:14:02;;;;;;;10.35;5.78;;;;;;;5.89;100.00;99725.34;8362775;27;20829;-60
2021/12/05 19:18:03;;;;;;;10.75;6.50;;;;;;;5.87;100.00;99727.28;8380733;28;20037;-60
2021/12/05 19:22:03;;;;;;;14.05;7.50;;;;;;;5.90;100.00;99735.09;8384345;28;20051;-60
2021/12/05 19:26:06;;;;;;;11.13;6.32;;;;;;;5.88;100.00;99735.22;8377024;28;20052;-60
2021/12/05 19:30:11;;;;;;;11.55;7.20;;;;;;;5.86;100.00;99747.88;8371235;28;20032;-60
2021/12/05 19:34:12;;;;;;;10.40;6.97;;;;;;;5.82;100.00;99750.97;8371968;28;20449;-60
2021/12/05 19:38:14;;;;;;;10.40;7.55;;;;;;;5.88;100.00;99750.44;8372563;28;20106;-60
2021/12/05 19:42:20;;;;;;;14.80;7.93;;;;;;;5.96;100.00;99761.38;8380507;28;20401;-60
2021/12/05 19:46:22;;;;;;;12.32;8.30;;;;;;;5.98;100.00;99762.13;8390724;28;20033;-60
2021/12/05 19:50:26;;;;;;;9.45;6.55;;;;;;;5.91;100.00;99760.91;8377667;28;20458;-60
2021/12/05 19:54:27;;;;;;;9.60;6.32;;;;;;;5.89;100.00;99769.09;8371826;28;20739;-60
2021/12/05 19:58:27;;;;;;;10.38;5.95;;;;;;;5.95;100.00;99783.84;8382596;28;20423;-60
2021/12/05 20:02:27;;;;;;;7.38;5.47;;;;;;;5.86;100.00;99787.28;8389793;28;20052;-60
2021/12/05 20:06:28;;;;;;;10.35;6.65;;;;;;;5.87;100.00;99781.81;8388545;28;20041;-60
2021/12/05 20:10:31;;;;;;;10.23;6.55;;;;;;;5.78;100.00;99785.22;8393929;28;20052;-60
2021/12/05 20:14:32;;;;;;;8.88;5.95;;;;;;;5.72;100.00;99782.19;8371590;28;20474;-60
2021/12/05 20:18:32;;;;;;;8.75;5.50;;;;;;;5.71;100.00;99801.94;8379324;28;20044;-60
2021/12/05 20:22:33;;;;;;;10.23;6.00;;;;;;;5.54;100.00;99814.06;8386409;28;20635;-60
2021/12/05 20:26:34;;;;;;;8.73;5.95;;;;;;;5.54;100.00;99822.09;8363082;28;20044;-60
2021/12/05 20:30:36;;;;;;;10.70;7.10;;;;;;;5.54;100.00;99815.88;8360866;28;20037;-60
2021/12/05 20:34:37;;;;;;;11.27;7.20;;;;;;;5.46;100.00;99813.00;8378691;28;20500;-60
2021/12/05 20:38:40;;;;;;;12.10;7.75;;;;;;;5.32;100.00;99822.16;8352783;28;20033;-60
2021/12/05 20:42:41;;;;;;;12.20;7.50;;;;;;;5.35;100.00;99826.41;8366413;28;20482;-60
2021/12/05 20:46:42;;;;;;;9.80;6.60;;;;;;;5.33;100.00;99837.25;8355626;28;20145;-60
2021/12/05 20:50:43;;;;;;;11.88;7.13;;;;;;;5.31;100.00;99847.22;8348666;28;20111;-60
2021/12/05 20:54:43;;;;;;;12.48;8.15;;;;;;;5.28;100.00;99852.84;8365752;28;20508;-60
2021/12/05 20:58:45;;;;;;;13.13;7.90;;;;;;;5.27;100.00;99851.13;8349669;28;20412;-60
2021/12/05 21:02:46;;;;;;;13.20;9.18;;;;;;;5.30;100.00;99863.44;8370743;28;20128;-60
2021/12/05 21:06:47;;;;;;;12.27;8.88;;;;;;;5.10;100.00;99869.56;8380984;28;20029;-60
2021/12/05 21:10:52;;;;;;;11.70;7.60;;;;;;;5.02;100.00;99871.97;8368622;28;20592;-60
2021/12/05 21:14:53;;;;;;;;;;;;;;;4.98;100.00;99891.94;8367413;28;20052;-60
2021/12/05 21:18:55;;;;;;;19.05;10.65;;;;;;;4.85;100.00;99891.22;8368092;28;19924;-60
2021/12/05 21:22:56;;;;;;;19.95;11.75;;;;;;;4.80;100.00;99898.75;8348276;28;20396;-60
2021/12/05 21:26:56;;;;;;;18.40;11.85;;;;;;;4.74;100.00;99900.06;8350258;28;20060;-60
2021/12/05 21:30:57;;;;;;;19.38;11.95;;;;;;;4.76;100.00;99905.31;8350003;28;20410;-60
2021/12/05 21:34:57;;;;;;;23.08;11.25;;;;;;;4.78;100.00;99906.03;8381438;28;20033;-60
2021/12/05 21:38:58;;;;;;;16.60;10.88;;;;;;;4.78;100.00;99911.38;8381036;28;20040;-60
2021/12/05 21:42:59;;;;;;;21.33;12.43;;;;;;;4.95;100.00;99918.97;8350593;28;20131;-60
2021/12/05 21:46:59;;;;;;;22.77;13.70;;;;;;;5.00;100.00;99916.78;8348775;28;20107;-60
2021/12/05 21:51:01;;;;;;;29.65;16.15;;;;;;;5.14;100.00;99922.75;8361226;28;20843;-60
2021/12/05 21:55:03;;;;;;;29.60;15.43;;;;;;;5.20;100.00;99913.38;8365419;28;20041;-60
2021/12/05 21:59:04;;;;;;;27.95;15.02;;;;;;;5.31;100.00;99938.34;8357853;28;20037;-60
2021/12/05 22:03:06;;;;;;;26.95;15.75;;;;;;;5.33;100.00;99938.22;8362740;28;20039;-60
2021/12/05 22:07:06;;;;;;;23.80;14.85;;;;;;;5.35;100.00;99952.34;8361627;28;20036;-60
2021/12/05 22:11:07;;;;;;;26.05;15.32;;;;;;;5.38;100.00;99960.16;8371391;28;20044;-60
2021/12/05 22:15:09;;;;;;;23.35;14.63;;;;;;;5.38;100.00;99957.47;8363946;28;20049;-60
2021/12/05 22:19:12;;;;;;;27.10;15.77;;;;;;;5.33;100.00;99965.00;8369393;28;20039;-60
2021/12/05 22:23:13;;;;;;;24.33;15.30;;;;;;;5.27;100.00;99969.03;8366062;28;20430;-60
2021/12/05 22:27:14;;;;;;;25.02;14.80;;;;;;;5.22;100.00;99976.56;8363783;28;20044;-60
2021/12/05 22:31:15;;;;;;;27.75;15.45;;;;;;;5.39;100.00;99988.66;8362739;28;20044;-61
2021/12/05 22:35:16;;;;;;;25.85;16.08;;;;;;;5.42;100.00;99996.44;8361712;28;20144;-60
2021/12/05 22:39:16;;;;;;;25.00;14.27;;;;;;;5.44;100.00;99998.06;8349741;28;20045;-60
2021/12/05 22:43:17;;;;;;;25.55;13.85;;;;;;;5.42;100.00;100015.22;8349142;28;20053;-61
2021/12/05 22:47:19;;;;;;;24.83;14.20;;;;;;;5.30;100.00;100010.81;8349432;28;20064;-61
2021/12/05 22:51:20;;;;;;;26.70;15.23;;;;;;;5.26;100.00;100014.72;8348756;28;20483;-60
2021/12/05 22:55:21;;;;;;;26.95;15.70;;;;;;;5.24;100.00;100022.00;8348832;28;20056;-61
2021/12/05 22:59:21;;;;;;;37.88;21.45;;;;;;;5.24;100.00;100022.00;8377380;28;20040;-61
2021/12/05 23:03:26;;;;;;;36.65;23.40;;;;;;;5.27;100.00;100028.00;8362292;28;20090;-61
2021/12/05 23:07:26;;;;;;;;;;;;;;;5.20;100.00;100025.91;8352158;28;20048;-61
2021/12/05 23:11:28;;;;;;;30.60;19.53;;;;;;;5.18;100.00;100030.53;8365086;28;19963;-61
2021/12/05 23:15:29;;;;;;;32.50;19.23;;;;;;;5.19;100.00;100040.28;8368349;28;20298;-61
2021/12/05 23:19:29;;;;;;;33.30;19.45;;;;;;;5.24;100.00;100038.09;8382980;28;20055;-61
2021/12/05 23:23:30;;;;;;;31.60;17.88;;;;;;;5.32;100.00;100041.03;8365487;28;20044;-61
2021/12/05 23:27:30;;;;;;;32.20;18.48;;;;;;;5.33;100.00;100042.72;8372195;28;20440;-61
2021/12/05 23:31:31;;;;;;;26.92;16.95;;;;;;;5.35;100.00;100047.03;8359857;28;20053;-61
2021/12/05 23:35:32;;;;;;;31.58;17.75;;;;;;;5.24;100.00;100051.47;8354882;28;20041;-61